sensor_id;sensor_type;location;lat;lon;timestamp;pressure;altitude;pressure_sealevel;temperature;humidity
14790;BME280;7486;51.010;10.366;2023-01-01T00:00:27;98071.28;;;10.96;54.14
14790;BME280;7486;51.010;10.366;2023-01-01T00:02:53;98071.31;;;10.83;54.57
14790;BME280;7486;51.010;10.366;2023-01-01T00:05:20;98083.06;;;11.00;54.37
14790;BME280;7486;51.010;10.366;2023-01-01T00:07:47;98077.13;;;11.04;54.81
14790;BME280;7486;51.010;10.366;2023-01-01T00:10:13;98083.50;;;10.97;54.98
14790;BME280;7486;51.010;10.366;2023-01-01T00:12:40;98081.47;;;10.99;54.19
14790;BME280;7486;51.010;10.366;2023-01-01T00:15:07;98086.41;;;10.89;54.40
14790;BME280;7486;51.010;10.366;2023-01-01T00:17:34;98091.25;;;10.98;54.23
14790;BME280;7486;51.010;10.366;2023-01-01T00:20:00;98089.44;;;10.86;54.74
14790;BME280;7486;51.010;10.366;2023-01-01T00:22:27;98097.03;;;10.82;54.93
14790;BME280;7486;51.010;10.366;2023-01-01T00:25:14;98093.16;;;10.78;55.47
14790;BME280;7486;51.010;10.366;2023-01-01T00:27:41;98093.16;;;10.85;55.02
14790;BME280;7486;51.010;10.366;2023-01-01T00:30:09;98072.78;;;10.72;54.96
14790;BME280;7486;51.010;10.366;2023-01-01T00:32:36;98094.50;;;10.94;55.02
14790;BME280;7486;51.010;10.366;2023-01-01T00:35:03;98094.31;;;10.95;54.77
14790;BME280;7486;51.010;10.366;2023-01-01T00:37:29;98085.59;;;10.88;55.04
14790;BME280;7486;51.010;10.366;2023-01-01T00:39:56;98096.56;;;10.92;55.02
14790;BME280;7486;51.010;10.366;2023-01-01T00:42:23;98094.75;;;10.92;54.96
14790;BME280;7486;51.010;10.366;2023-01-01T00:44:49;98095.72;;;10.98;54.84
14790;BME280;7486;51.010;10.366;2023-01-01T00:47:16;98089.41;;;10.99;54.63
14790;BME280;7486;51.010;10.366;2023-01-01T00:49:43;98084.22;;;10.72;56.03
14790;BME280;7486;51.010;10.366;2023-01-01T00:52:09;98097.84;;;10.76;55.55
14790;BME280;7486;51.010;10.366;2023-01-01T00:54:36;98109.66;;;10.80;55.29
14790;BME280;7486;51.010;10.366;2023-01-01T00:57:03;98094.38;;;10.82;54.63
14790;BME280;7486;51.010;10.366;2023-01-01T00:59:30;98096.19;;;10.88;54.62
14790;BME280;7486;51.010;10.366;2023-01-01T01:01:56;98096.25;;;10.68;55.53
14790;BME280;7486;51.010;10.366;2023-01-01T01:04:24;98093.44;;;10.63;55.15
14790;BME280;7486;51.010;10.366;2023-01-01T01:06:50;98095.84;;;10.71;55.01
14790;BME280;7486;51.010;10.366;2023-01-01T01:09:17;98096.47;;;10.67;54.93
14790;BME280;7486;51.010;10.366;2023-01-01T01:11:44;98094.88;;;10.53;55.69
14790;BME280;7486;51.010;10.366;2023-01-01T01:14:11;98111.53;;;10.66;55.23
14790;BME280;7486;51.010;10.366;2023-01-01T01:16:38;98100.78;;;10.55;55.47
14790;BME280;7486;51.010;10.366;2023-01-01T01:19:05;98102.34;;;10.76;54.89
14790;BME280;7486;51.010;10.366;2023-01-01T01:21:33;98104.44;;;10.60;55.60
14790;BME280;7486;51.010;10.366;2023-01-01T01:24:01;98098.88;;;10.68;55.35
14790;BME280;7486;51.010;10.366;2023-01-01T01:26:30;98107.25;;;10.79;55.28
14790;BME280;7486;51.010;10.366;2023-01-01T01:28:58;98081.97;;;10.69;54.81
14790;BME280;7486;51.010;10.366;2023-01-01T01:31:29;98107.28;;;10.59;55.36
14790;BME280;7486;51.010;10.366;2023-01-01T01:33:56;98102.00;;;10.52;55.67
14790;BME280;7486;51.010;10.366;2023-01-01T01:36:25;98106.47;;;10.58;55.48
14790;BME280;7486;51.010;10.366;2023-01-01T01:38:52;98051.13;;;10.24;55.95
14790;BME280;7486;51.010;10.366;2023-01-01T01:41:21;98099.78;;;10.49;56.14
14790;BME280;7486;51.010;10.366;2023-01-01T01:44:00;98110.16;;;10.44;56.64
14790;BME280;7486;51.010;10.366;2023-01-01T01:46:37;98101.44;;;10.37;56.71
14790;BME280;7486;51.010;10.366;2023-01-01T01:49:26;98104.66;;;10.39;56.52
14790;BME280;7486;51.010;10.366;2023-01-01T01:51:55;98058.69;;;10.14;56.91
14790;BME280;7486;51.010;10.366;2023-01-01T01:54:23;98106.50;;;10.52;56.69
14790;BME280;7486;51.010;10.366;2023-01-01T01:56:55;98092.66;;;10.37;57.01
14790;BME280;7486;51.010;10.366;2023-01-01T01:59:26;98106.72;;;10.37;57.51
14790;BME280;7486;51.010;10.366;2023-01-01T02:01:55;98067.44;;;10.21;56.94
14790;BME280;7486;51.010;10.366;2023-01-01T02:04:23;98095.09;;;10.51;56.63
14790;BME280;7486;51.010;10.366;2023-01-01T02:06:51;98108.31;;;10.38;56.78
14790;BME280;7486;51.010;10.366;2023-01-01T02:09:18;97976.59;;;9.50;57.38
14790;BME280;7486;51.010;10.366;2023-01-01T02:11:44;98118.34;;;10.23;57.50
14790;BME280;7486;51.010;10.366;2023-01-01T02:14:11;98105.91;;;10.30;57.78
14790;BME280;7486;51.010;10.366;2023-01-01T02:16:55;98101.44;;;10.31;57.46
14790;BME280;7486;51.010;10.366;2023-01-01T02:25:27;98122.03;;;10.02;58.53
14790;BME280;7486;51.010;10.366;2023-01-01T02:30:38;98100.47;;;9.92;58.67
14790;BME280;7486;51.010;10.366;2023-01-01T02:33:10;98107.81;;;10.03;58.42
14790;BME280;7486;51.010;10.366;2023-01-01T02:35:42;98127.72;;;10.06;58.32
14790;BME280;7486;51.010;10.366;2023-01-01T02:38:36;98122.44;;;10.06;58.18
14790;BME280;7486;51.010;10.366;2023-01-01T02:41:24;98111.03;;;9.99;58.67
14790;BME280;7486;51.010;10.366;2023-01-01T02:43:52;98118.78;;;10.13;58.13
14790;BME280;7486;51.010;10.366;2023-01-01T02:46:19;98093.34;;;9.93;58.19
14790;BME280;7486;51.010;10.366;2023-01-01T02:48:50;98117.75;;;10.01;58.66
14790;BME280;7486;51.010;10.366;2023-01-01T03:01:57;98125.91;;;10.00;58.94
14790;BME280;7486;51.010;10.366;2023-01-01T03:04:35;98127.72;;;10.06;58.54
14790;BME280;7486;51.010;10.366;2023-01-01T03:10:10;98135.69;;;9.99;58.74
14790;BME280;7486;51.010;10.366;2023-01-01T03:12:44;98137.09;;;10.02;58.96
14790;BME280;7486;51.010;10.366;2023-01-01T03:15:14;98130.19;;;9.81;59.47
14790;BME280;7486;51.010;10.366;2023-01-01T03:17:55;98131.41;;;9.85;59.23
14790;BME280;7486;51.010;10.366;2023-01-01T03:20:26;98133.63;;;9.82;59.48
14790;BME280;7486;51.010;10.366;2023-01-01T03:22:58;98132.81;;;9.88;59.22
14790;BME280;7486;51.010;10.366;2023-01-01T03:25:31;98128.13;;;9.90;59.16
14790;BME280;7486;51.010;10.366;2023-01-01T03:28:05;98105.78;;;9.79;59.15
14790;BME280;7486;51.010;10.366;2023-01-01T03:30:35;98121.66;;;9.73;59.72
14790;BME280;7486;51.010;10.366;2023-01-01T03:33:10;98092.75;;;9.51;60.09
14790;BME280;7486;51.010;10.366;2023-01-01T03:35:46;98127.13;;;9.71;60.15
14790;BME280;7486;51.010;10.366;2023-01-01T03:38:21;98093.16;;;9.48;59.84
14790;BME280;7486;51.010;10.366;2023-01-01T03:40:53;98129.75;;;9.91;59.32
14790;BME280;7486;51.010;10.366;2023-01-01T03:43:34;98136.28;;;9.95;59.32
14790;BME280;7486;51.010;10.366;2023-01-01T03:46:06;98135.28;;;9.96;59.24
14790;BME280;7486;51.010;10.366;2023-01-01T03:48:34;98131.41;;;9.92;59.71
14790;BME280;7486;51.010;10.366;2023-01-01T03:51:13;98131.22;;;10.00;59.67
14790;BME280;7486;51.010;10.366;2023-01-01T03:53:43;98128.13;;;9.90;59.76
14790;BME280;7486;51.010;10.366;2023-01-01T03:56:18;98123.03;;;10.01;59.99
14790;BME280;7486;51.010;10.366;2023-01-01T03:58:57;98132.81;;;10.01;60.14
14790;BME280;7486;51.010;10.366;2023-01-01T04:01:31;98121.63;;;10.12;59.85
14790;BME280;7486;51.010;10.366;2023-01-01T04:04:02;98125.69;;;10.08;59.83
14790;BME280;7486;51.010;10.366;2023-01-01T04:06:33;98126.94;;;9.99;60.37
14790;BME280;7486;51.010;10.366;2023-01-01T04:09:00;98116.34;;;9.99;60.49
14790;BME280;7486;51.010;10.366;2023-01-01T04:11:30;98097.59;;;9.94;59.32
14790;BME280;7486;51.010;10.366;2023-01-01T04:14:00;98134.03;;;10.05;59.46
14790;BME280;7486;51.010;10.366;2023-01-01T04:16:26;98152.78;;;10.10;59.70
14790;BME280;7486;51.010;10.366;2023-01-01T04:18:53;98152.13;;;10.14;59.57
14790;BME280;7486;51.010;10.366;2023-01-01T04:21:20;98154.19;;;10.19;59.45
14790;BME280;7486;51.010;10.366;2023-01-01T04:23:48;98153.78;;;10.09;59.86
14790;BME280;7486;51.010;10.366;2023-01-01T04:26:15;98146.66;;;10.22;59.43
14790;BME280;7486;51.010;10.366;2023-01-01T04:28:42;98152.16;;;10.08;59.31
14790;BME280;7486;51.010;10.366;2023-01-01T04:31:08;98145.03;;;10.02;60.09
14790;BME280;7486;51.010;10.366;2023-01-01T04:33:35;98140.75;;;9.94;59.74
14790;BME280;7486;51.010;10.366;2023-01-01T04:36:07;98156.44;;;10.15;59.49
14790;BME280;7486;51.010;10.366;2023-01-01T04:38:35;98151.72;;;10.37;58.66
14790;BME280;7486;51.010;10.366;2023-01-01T04:41:03;98159.47;;;10.32;58.49
14790;BME280;7486;51.010;10.366;2023-01-01T04:43:30;98154.38;;;10.17;59.10
14790;BME280;7486;51.010;10.366;2023-01-01T04:45:59;98128.94;;;9.84;59.51
14790;BME280;7486;51.010;10.366;2023-01-01T04:48:27;98129.97;;;9.83;59.45
14790;BME280;7486;51.010;10.366;2023-01-01T04:51:02;98152.75;;;9.97;59.67
14790;BME280;7486;51.010;10.366;2023-01-01T04:53:31;98160.09;;;9.88;60.22
14790;BME280;7486;51.010;10.366;2023-01-01T04:56:13;98117.53;;;9.77;59.58
14790;BME280;7486;51.010;10.366;2023-01-01T04:58:41;98167.03;;;10.09;59.66
14790;BME280;7486;51.010;10.366;2023-01-01T05:01:21;98164.38;;;10.02;59.83
14790;BME280;7486;51.010;10.366;2023-01-01T05:03:48;98179.44;;;9.89;60.48
14790;BME280;7486;51.010;10.366;2023-01-01T05:06:15;98166.59;;;9.73;60.67
14790;BME280;7486;51.010;10.366;2023-01-01T05:08:44;98171.84;;;9.66;61.16
14790;BME280;7486;51.010;10.366;2023-01-01T05:11:15;98173.31;;;9.95;60.63
14790;BME280;7486;51.010;10.366;2023-01-01T05:13:44;98159.06;;;10.09;60.18
14790;BME280;7486;51.010;10.366;2023-01-01T05:16:14;98167.63;;;10.11;59.79
14790;BME280;7486;51.010;10.366;2023-01-01T05:18:41;98145.63;;;9.78;60.14
14790;BME280;7486;51.010;10.366;2023-01-01T05:21:12;98174.13;;;9.82;60.52
14790;BME280;7486;51.010;10.366;2023-01-01T05:23:39;98186.13;;;9.91;60.57
14790;BME280;7486;51.010;10.366;2023-01-01T05:26:17;98184.72;;;10.02;60.31
14790;BME280;7486;51.010;10.366;2023-01-01T05:28:45;98194.09;;;10.11;59.78
14790;BME280;7486;51.010;10.366;2023-01-01T05:31:13;98198.13;;;9.94;60.37
14790;BME280;7486;51.010;10.366;2023-01-01T05:33:41;98206.28;;;9.86;60.84
14790;BME280;7486;51.010;10.366;2023-01-01T05:36:10;98194.88;;;9.72;61.08
14790;BME280;7486;51.010;10.366;2023-01-01T05:38:40;98210.75;;;9.79;61.31
14790;BME280;7486;51.010;10.366;2023-01-01T05:41:08;98209.53;;;9.88;60.82
14790;BME280;7486;51.010;10.366;2023-01-01T05:43:35;98182.66;;;9.64;61.08
14790;BME280;7486;51.010;10.366;2023-01-01T05:46:04;98218.88;;;9.84;61.28
14790;BME280;7486;51.010;10.366;2023-01-01T05:48:32;98220.09;;;9.75;61.72
14790;BME280;7486;51.010;10.366;2023-01-01T05:51:15;98224.31;;;9.56;61.75
14790;BME280;7486;51.010;10.366;2023-01-01T05:53:43;98236.34;;;9.65;61.95
14790;BME280;7486;51.010;10.366;2023-01-01T05:56:10;98243.25;;;9.66;61.96
14790;BME280;7486;51.010;10.366;2023-01-01T05:58:37;98243.31;;;9.73;61.73
14790;BME280;7486;51.010;10.366;2023-01-01T06:03:36;98235.31;;;9.66;61.85
14790;BME280;7486;51.010;10.366;2023-01-01T06:06:16;98242.69;;;9.84;61.75
14790;BME280;7486;51.010;10.366;2023-01-01T06:11:16;98248.97;;;9.69;61.99
14790;BME280;7486;51.010;10.366;2023-01-01T06:13:43;98241.09;;;9.83;61.43
14790;BME280;7486;51.010;10.366;2023-01-01T06:16:11;98222.78;;;9.27;62.84
14790;BME280;7486;51.010;10.366;2023-01-01T06:18:39;98245.81;;;9.40;62.98
14790;BME280;7486;51.010;10.366;2023-01-01T06:21:13;98254.25;;;9.69;62.26
14790;BME280;7486;51.010;10.366;2023-01-01T06:23:41;98256.31;;;9.81;61.60
14790;BME280;7486;51.010;10.366;2023-01-01T06:26:10;98216.75;;;9.46;62.20
14790;BME280;7486;51.010;10.366;2023-01-01T06:28:38;98254.66;;;9.73;62.09
14790;BME280;7486;51.010;10.366;2023-01-01T06:31:08;98258.34;;;9.72;62.00
14790;BME280;7486;51.010;10.366;2023-01-01T06:33:36;98259.19;;;9.86;61.71
14790;BME280;7486;51.010;10.366;2023-01-01T06:36:04;98262.03;;;9.78;61.58
14790;BME280;7486;51.010;10.366;2023-01-01T06:38:33;98258.63;;;10.03;60.99
14790;BME280;7486;51.010;10.366;2023-01-01T06:41:02;98259.22;;;9.92;60.91
14790;BME280;7486;51.010;10.366;2023-01-01T06:43:31;98259.19;;;9.86;61.36
14790;BME280;7486;51.010;10.366;2023-01-01T06:48:54;98262.41;;;9.75;61.24
14790;BME280;7486;51.010;10.366;2023-01-01T06:51:23;98255.25;;;9.55;61.90
14790;BME280;7486;51.010;10.366;2023-01-01T06:53:51;98263.84;;;9.77;61.68
14790;BME280;7486;51.010;10.366;2023-01-01T06:56:19;98274.03;;;9.87;61.05
14790;BME280;7486;51.010;10.366;2023-01-01T06:58:46;98273.97;;;9.60;61.84
14790;BME280;7486;51.010;10.366;2023-01-01T07:01:21;98279.06;;;9.55;61.81
14790;BME280;7486;51.010;10.366;2023-01-01T07:03:56;98232.59;;;9.40;61.75
14790;BME280;7486;51.010;10.366;2023-01-01T07:06:24;98287.69;;;9.90;61.02
14790;BME280;7486;51.010;10.366;2023-01-01T07:08:51;98291.13;;;9.84;61.21
14790;BME280;7486;51.010;10.366;2023-01-01T07:11:18;98282.75;;;9.67;61.43
14790;BME280;7486;51.010;10.366;2023-01-01T07:13:45;98300.44;;;9.67;61.43
14790;BME280;7486;51.010;10.366;2023-01-01T07:16:12;98294.91;;;9.55;61.71
14790;BME280;7486;51.010;10.366;2023-01-01T07:18:39;98298.53;;;9.48;62.35
14790;BME280;7486;51.010;10.366;2023-01-01T07:21:43;98308.91;;;9.49;62.05
14790;BME280;7486;51.010;10.366;2023-01-01T07:24:13;98301.59;;;9.51;62.13
14790;BME280;7486;51.010;10.366;2023-01-01T07:26:39;98307.56;;;9.66;61.33
14790;BME280;7486;51.010;10.366;2023-01-01T07:29:07;98321.00;;;9.71;61.17
14790;BME280;7486;51.010;10.366;2023-01-01T07:31:36;98318.97;;;9.73;61.29
14790;BME280;7486;51.010;10.366;2023-01-01T07:34:04;98313.44;;;9.62;61.43
14790;BME280;7486;51.010;10.366;2023-01-01T07:36:30;98315.16;;;9.42;62.55
14790;BME280;7486;51.010;10.366;2023-01-01T07:38:57;98328.81;;;9.45;62.08
14790;BME280;7486;51.010;10.366;2023-01-01T07:41:24;98324.09;;;9.34;62.43
14790;BME280;7486;51.010;10.366;2023-01-01T07:43:51;98331.84;;;9.42;62.20
14790;BME280;7486;51.010;10.366;2023-01-01T07:46:18;98343.84;;;9.38;62.72
14790;BME280;7486;51.010;10.366;2023-01-01T07:48:45;98349.19;;;9.51;62.04
14790;BME280;7486;51.010;10.366;2023-01-01T07:51:12;98346.56;;;9.51;61.94
14790;BME280;7486;51.010;10.366;2023-01-01T07:53:38;98348.25;;;9.65;61.58
14790;BME280;7486;51.010;10.366;2023-01-01T07:56:06;98356.94;;;9.59;61.59
14790;BME280;7486;51.010;10.366;2023-01-01T07:58:32;98363.47;;;9.57;61.89
14790;BME280;7486;51.010;10.366;2023-01-01T08:00:59;98366.88;;;9.51;62.10
14790;BME280;7486;51.010;10.366;2023-01-01T08:03:26;98368.72;;;9.50;62.73
14790;BME280;7486;51.010;10.366;2023-01-01T08:05:53;98369.41;;;9.65;62.20
14790;BME280;7486;51.010;10.366;2023-01-01T08:08:20;98370.31;;;9.86;61.78
14790;BME280;7486;51.010;10.366;2023-01-01T08:10:46;98366.19;;;9.77;62.10
14790;BME280;7486;51.010;10.366;2023-01-01T08:13:13;98364.56;;;9.76;62.10
14790;BME280;7486;51.010;10.366;2023-01-01T08:15:40;98358.47;;;9.75;62.20
14790;BME280;7486;51.010;10.366;2023-01-01T08:18:08;98376.81;;;9.90;62.05
14790;BME280;7486;51.010;10.366;2023-01-01T08:20:34;98367.31;;;10.02;61.70
14790;BME280;7486;51.010;10.366;2023-01-01T08:23:01;98387.06;;;10.06;61.62
14790;BME280;7486;51.010;10.366;2023-01-01T08:25:33;98381.53;;;10.01;61.65
14790;BME280;7486;51.010;10.366;2023-01-01T08:28:00;98398.66;;;10.05;61.59
14790;BME280;7486;51.010;10.366;2023-01-01T08:30:27;98386.28;;;10.12;61.24
14790;BME280;7486;51.010;10.366;2023-01-01T08:32:53;98411.97;;;10.24;61.43
14790;BME280;7486;51.010;10.366;2023-01-01T08:35:20;98409.53;;;10.23;61.44
14790;BME280;7486;51.010;10.366;2023-01-01T08:37:47;98407.50;;;10.32;61.03
14790;BME280;7486;51.010;10.366;2023-01-01T08:40:14;98408.72;;;10.22;61.51
14790;BME280;7486;51.010;10.366;2023-01-01T08:42:40;98411.13;;;10.24;61.49
14790;BME280;7486;51.010;10.366;2023-01-01T08:45:08;98401.00;;;10.34;61.48
14790;BME280;7486;51.010;10.366;2023-01-01T08:47:34;98399.78;;;10.30;61.55
14790;BME280;7486;51.010;10.366;2023-01-01T08:50:01;98395.91;;;10.39;61.43
14790;BME280;7486;51.010;10.366;2023-01-01T08:52:28;98398.56;;;10.46;61.48
14790;BME280;7486;51.010;10.366;2023-01-01T08:54:55;98393.13;;;10.54;61.46
14790;BME280;7486;51.010;10.366;2023-01-01T08:57:21;98386.84;;;10.61;61.27
14790;BME280;7486;51.010;10.366;2023-01-01T08:59:48;98389.06;;;10.64;61.10
14790;BME280;7486;51.010;10.366;2023-01-01T09:02:15;98380.31;;;10.64;60.71
14790;BME280;7486;51.010;10.366;2023-01-01T09:04:42;98373.78;;;10.66;60.81
14790;BME280;7486;51.010;10.366;2023-01-01T09:07:08;98374.78;;;10.59;60.76
14790;BME280;7486;51.010;10.366;2023-01-01T09:09:35;98324.66;;;10.44;61.41
14790;BME280;7486;51.010;10.366;2023-01-01T09:12:02;98383.38;;;10.87;60.53
14790;BME280;7486;51.010;10.366;2023-01-01T09:14:30;98382.53;;;11.00;60.13
14790;BME280;7486;51.010;10.366;2023-01-01T09:16:57;98389.06;;;11.04;59.53
14790;BME280;7486;51.010;10.366;2023-01-01T09:19:24;98398.84;;;11.10;60.09
14790;BME280;7486;51.010;10.366;2023-01-01T09:21:51;98374.81;;;10.79;59.46
14790;BME280;7486;51.010;10.366;2023-01-01T09:24:18;98413.16;;;11.09;59.41
14790;BME280;7486;51.010;10.366;2023-01-01T09:26:45;98421.69;;;11.17;59.07
14790;BME280;7486;51.010;10.366;2023-01-01T09:29:12;98426.59;;;11.14;59.52
14790;BME280;7486;51.010;10.366;2023-01-01T09:31:38;98418.63;;;11.14;59.30
14790;BME280;7486;51.010;10.366;2023-01-01T09:34:05;98442.69;;;10.99;59.70
14790;BME280;7486;51.010;10.366;2023-01-01T09:36:32;98439.44;;;10.84;61.05
14790;BME280;7486;51.010;10.366;2023-01-01T09:38:59;98446.56;;;10.90;60.31
14790;BME280;7486;51.010;10.366;2023-01-01T09:47:40;98464.75;;;11.13;59.48
14790;BME280;7486;51.010;10.366;2023-01-01T09:52:51;98474.72;;;11.11;59.21
14790;BME280;7486;51.010;10.366;2023-01-01T09:55:56;98463.69;;;11.27;59.49
14790;BME280;7486;51.010;10.366;2023-01-01T09:58:26;98478.38;;;11.10;59.26
14790;BME280;7486;51.010;10.366;2023-01-01T10:01:00;98452.47;;;10.86;59.96
14790;BME280;7486;51.010;10.366;2023-01-01T10:11:34;98482.19;;;10.61;61.00
14790;BME280;7486;51.010;10.366;2023-01-01T10:14:09;98485.44;;;10.63;61.44
14790;BME280;7486;51.010;10.366;2023-01-01T10:16:43;98480.97;;;10.64;61.28
14790;BME280;7486;51.010;10.366;2023-01-01T10:19:25;98486.31;;;10.84;60.77
14790;BME280;7486;51.010;10.366;2023-01-01T10:21:58;98484.47;;;10.91;60.60
14790;BME280;7486;51.010;10.366;2023-01-01T10:26:57;98461.41;;;10.65;61.22
14790;BME280;7486;51.010;10.366;2023-01-01T10:29:35;98473.44;;;10.74;61.66
14790;BME280;7486;51.010;10.366;2023-01-01T10:32:25;98476.47;;;10.58;62.26
14790;BME280;7486;51.010;10.366;2023-01-01T10:34:54;98477.66;;;10.55;62.48
14790;BME280;7486;51.010;10.366;2023-01-01T10:37:21;98476.91;;;10.75;61.98
14790;BME280;7486;51.010;10.366;2023-01-01T10:39:47;98468.56;;;10.78;62.02
14790;BME280;7486;51.010;10.366;2023-01-01T10:42:15;98463.47;;;10.83;61.13
14790;BME280;7486;51.010;10.366;2023-01-01T10:44:42;98460.03;;;10.89;61.29
14790;BME280;7486;51.010;10.366;2023-01-01T10:47:23;98454.09;;;10.87;61.35
14790;BME280;7486;51.010;10.366;2023-01-01T10:50:01;98461.06;;;11.01;61.17
14790;BME280;7486;51.010;10.366;2023-01-01T10:52:39;98459.63;;;11.05;61.37
14790;BME280;7486;51.010;10.366;2023-01-01T10:55:20;98465.09;;;10.84;61.60
14790;BME280;7486;51.010;10.366;2023-01-01T10:57:49;98457.56;;;10.94;61.22
14790;BME280;7486;51.010;10.366;2023-01-01T11:00:24;98463.28;;;10.84;61.54
14790;BME280;7486;51.010;10.366;2023-01-01T11:03:17;98462.69;;;10.82;61.67
14790;BME280;7486;51.010;10.366;2023-01-01T11:08:55;98467.09;;;10.62;62.55
14790;BME280;7486;51.010;10.366;2023-01-01T11:13:55;98464.28;;;10.96;61.29
14790;BME280;7486;51.010;10.366;2023-01-01T11:16:25;98464.53;;;10.95;61.79
14790;BME280;7486;51.010;10.366;2023-01-01T11:19:00;98428.00;;;10.84;61.74
14790;BME280;7486;51.010;10.366;2023-01-01T11:21:28;98460.22;;;11.20;60.94
14790;BME280;7486;51.010;10.366;2023-01-01T11:24:14;98458.63;;;11.26;60.08
14790;BME280;7486;51.010;10.366;2023-01-01T11:26:42;98466.75;;;11.17;60.17
14790;BME280;7486;51.010;10.366;2023-01-01T11:31:42;98465.75;;;10.99;61.14
14790;BME280;7486;51.010;10.366;2023-01-01T11:37:22;98436.56;;;10.72;62.28
14790;BME280;7486;51.010;10.366;2023-01-01T11:39:52;98446.78;;;11.15;60.88
14790;BME280;7486;51.010;10.366;2023-01-01T11:42:23;98456.38;;;11.22;60.99
14790;BME280;7486;51.010;10.366;2023-01-01T11:44:56;98452.50;;;11.25;60.72
14790;BME280;7486;51.010;10.366;2023-01-01T11:47:31;98457.16;;;11.10;60.69
14790;BME280;7486;51.010;10.366;2023-01-01T11:50:21;98447.38;;;10.71;62.17
14790;BME280;7486;51.010;10.366;2023-01-01T11:52:51;98434.13;;;10.97;61.72
14790;BME280;7486;51.010;10.366;2023-01-01T11:55:38;98436.97;;;10.83;62.18
14790;BME280;7486;51.010;10.366;2023-01-01T12:00:48;98432.44;;;10.50;62.82
14790;BME280;7486;51.010;10.366;2023-01-01T12:03:29;98436.34;;;10.61;62.38
14790;BME280;7486;51.010;10.366;2023-01-01T12:06:15;98449.19;;;10.70;62.50
14790;BME280;7486;51.010;10.366;2023-01-01T12:11:45;98398.44;;;10.73;61.72
14790;BME280;7486;51.010;10.366;2023-01-01T12:14:43;98444.13;;;10.89;61.87
14790;BME280;7486;51.010;10.366;2023-01-01T12:17:19;98437.81;;;11.16;61.13
14790;BME280;7486;51.010;10.366;2023-01-01T12:22:33;98402.31;;;10.51;61.52
14790;BME280;7486;51.010;10.366;2023-01-01T12:25:01;98450.03;;;10.91;61.20
14790;BME280;7486;51.010;10.366;2023-01-01T12:30:22;98448.41;;;10.90;61.35
14790;BME280;7486;51.010;10.366;2023-01-01T12:35:51;98463.03;;;10.72;61.86
14790;BME280;7486;51.010;10.366;2023-01-01T12:44:10;98460.06;;;10.41;62.73
14790;BME280;7486;51.010;10.366;2023-01-01T12:52:34;98472.00;;;10.65;62.43
14790;BME280;7486;51.010;10.366;2023-01-01T12:58:19;98471.53;;;10.48;62.89
14790;BME280;7486;51.010;10.366;2023-01-01T13:00:58;98478.25;;;10.44;62.72
14790;BME280;7486;51.010;10.366;2023-01-01T13:03:43;98473.19;;;10.56;62.51
14790;BME280;7486;51.010;10.366;2023-01-01T13:06:13;98474.69;;;10.71;61.52
14790;BME280;7486;51.010;10.366;2023-01-01T13:08:47;98478.53;;;10.69;62.27
14790;BME280;7486;51.010;10.366;2023-01-01T13:11:16;98477.59;;;10.42;62.75
14790;BME280;7486;51.010;10.366;2023-01-01T13:13:43;98479.97;;;10.24;63.29
14790;BME280;7486;51.010;10.366;2023-01-01T13:16:11;98479.22;;;10.37;62.94
14790;BME280;7486;51.010;10.366;2023-01-01T13:18:39;98472.50;;;10.34;62.79
14790;BME280;7486;51.010;10.366;2023-01-01T13:21:21;98477.19;;;10.45;62.98
14790;BME280;7486;51.010;10.366;2023-01-01T13:23:49;98472.38;;;10.62;62.52
14790;BME280;7486;51.010;10.366;2023-01-01T13:48:23;98482.66;;;10.31;63.10
14790;BME280;7486;51.010;10.366;2023-01-01T14:02:42;98470.53;;;10.49;62.69
14790;BME280;7486;51.010;10.366;2023-01-01T14:05:22;98468.63;;;10.37;62.54
14790;BME280;7486;51.010;10.366;2023-01-01T14:07:53;98477.13;;;10.26;63.73
14790;BME280;7486;51.010;10.366;2023-01-01T14:10:31;98477.72;;;10.21;63.33
14790;BME280;7486;51.010;10.366;2023-01-01T14:13:14;98467.78;;;10.30;63.21
14790;BME280;7486;51.010;10.366;2023-01-01T14:15:56;98488.31;;;10.28;63.14
14790;BME280;7486;51.010;10.366;2023-01-01T14:18:45;98482.06;;;10.35;62.69
14790;BME280;7486;51.010;10.366;2023-01-01T14:21:20;98485.47;;;10.22;63.48
14790;BME280;7486;51.010;10.366;2023-01-01T14:23:50;98463.50;;;9.88;63.89
14790;BME280;7486;51.010;10.366;2023-01-01T14:26:21;98492.09;;;10.05;64.03
14790;BME280;7486;51.010;10.366;2023-01-01T14:28:53;98504.44;;;10.26;63.18
14790;BME280;7486;51.010;10.366;2023-01-01T14:31:23;98498.75;;;10.29;62.93
14790;BME280;7486;51.010;10.366;2023-01-01T14:33:52;98504.97;;;10.15;63.23
14790;BME280;7486;51.010;10.366;2023-01-01T14:36:25;98506.91;;;10.34;63.31
14790;BME280;7486;51.010;10.366;2023-01-01T14:38:54;98491.78;;;10.21;62.85
14790;BME280;7486;51.010;10.366;2023-01-01T14:43:49;98505.44;;;10.25;63.25
14790;BME280;7486;51.010;10.366;2023-01-01T14:46:19;98504.09;;;10.42;62.51
14790;BME280;7486;51.010;10.366;2023-01-01T14:48:54;98514.34;;;10.17;63.74
14790;BME280;7486;51.010;10.366;2023-01-01T14:51:24;98515.34;;;10.10;63.88
14790;BME280;7486;51.010;10.366;2023-01-01T14:53:56;98527.53;;;10.04;64.16
14790;BME280;7486;51.010;10.366;2023-01-01T14:56:29;98515.31;;;10.03;63.82
14790;BME280;7486;51.010;10.366;2023-01-01T14:59:12;98522.66;;;10.08;63.90
14790;BME280;7486;51.010;10.366;2023-01-01T15:01:42;98523.13;;;10.18;63.73
14790;BME280;7486;51.010;10.366;2023-01-01T15:04:19;98517.81;;;10.18;63.35
14790;BME280;7486;51.010;10.366;2023-01-01T15:06:55;98493.00;;;10.19;63.56
14790;BME280;7486;51.010;10.366;2023-01-01T15:09:22;98511.41;;;10.34;62.64
14790;BME280;7486;51.010;10.366;2023-01-01T15:11:56;98503.97;;;10.16;63.41
14790;BME280;7486;51.010;10.366;2023-01-01T15:14:40;98505.97;;;10.14;63.58
14790;BME280;7486;51.010;10.366;2023-01-01T15:17:30;98507.94;;;10.33;63.66
14790;BME280;7486;51.010;10.366;2023-01-01T15:20:21;98470.00;;;10.26;62.24
14790;BME280;7486;51.010;10.366;2023-01-01T15:22:49;98520.50;;;10.24;63.17
14790;BME280;7486;51.010;10.366;2023-01-01T15:25:17;98506.69;;;10.29;63.16
14790;BME280;7486;51.010;10.366;2023-01-01T15:27:49;98507.09;;;10.33;62.92